Time;durP1;ratioP1;P1;durP2;ratioP2;P2;SDS_P1;SDS_P2;PMS_P1;PMS_P2;Temp;Humidity;BMP_temperature;BMP_pressure;BME280_temperature;BME280_humidity;BME280_pressure;Samples;Min_cycle;Max_cycle;Signal;HPM_P1;HPM_P2
2022/11/16 00:01:08;;;;;;;30.80;16.50;;;;;;;5.50;91.25;99996.04;100577;1296;88092;-58
2022/11/16 00:03:41;;;;;;;27.80;15.40;;;;;;;5.53;91.27;99999.59;100652;1290;81053;-60
2022/11/16 00:06:17;;;;;;;30.50;16.90;;;;;;;5.50;91.42;99999.29;100612;1295;98880;-59
2022/11/16 00:11:35;;;;;;;29.60;15.50;;;;;;;5.51;91.46;99998.96;100585;1288;82470;-60
2022/11/16 00:14:08;;;;;;;25.70;15.50;;;;;;;5.52;91.44;99995.43;100625;1294;88834;-60
2022/11/16 00:16:44;;;;;;;29.60;15.40;;;;;;;5.51;91.52;99990.17;100604;1288;81889;-60
2022/11/16 00:19:17;;;;;;;27.00;14.50;;;;;;;5.52;91.45;99986.35;100661;1296;99036;-61
2022/11/16 00:21:55;;;;;;;28.90;16.20;;;;;;;5.59;91.38;99987.36;100580;1296;95095;-59
2022/11/16 00:24:26;;;;;;;27.90;15.80;;;;;;;5.59;91.36;99995.57;100632;1296;82992;-59
2022/11/16 00:27:01;;;;;;;29.30;16.40;;;;;;;5.61;91.43;99994.80;100570;1289;88359;-59
2022/11/16 00:29:29;;;;;;;;;;;;;;;5.62;91.42;99990.25;100634;1288;81834;-58
2022/11/16 00:31:59;;;;;;;29.40;14.70;;;;;;;5.66;91.32;99987.34;100616;1288;99201;-58
2022/11/16 00:34:34;;;;;;;30.90;16.20;;;;;;;5.67;91.36;99988.14;100589;1290;95565;-61
2022/11/16 00:37:06;;;;;;;29.10;15.80;;;;;;;5.65;91.46;99986.90;100569;1296;82791;-61
2022/11/16 00:39:44;;;;;;;29.70;15.80;;;;;;;5.64;91.49;99983.79;100568;1296;86704;-59
2022/11/16 00:42:15;;;;;;;28.10;15.20;;;;;;;5.69;91.43;99988.54;100586;1296;81253;-59
2022/11/16 00:44:51;;;;;;;27.30;15.40;;;;;;;5.70;91.49;99989.48;100558;1295;98484;-58
2022/11/16 00:47:25;;;;;;;28.50;14.70;;;;;;;5.68;91.53;99989.04;100578;1295;93427;-58
2022/11/16 00:49:57;;;;;;;24.70;13.80;;;;;;;5.63;91.43;99992.17;100609;1285;82556;-58
2022/11/16 00:52:31;;;;;;;23.70;13.50;;;;;;;5.64;91.41;99995.23;100570;1292;88364;-58
2022/11/16 00:55:04;;;;;;;25.10;13.60;;;;;;;5.64;91.42;99992.48;100618;1296;81894;-58
2022/11/16 00:57:37;;;;;;;24.00;15.00;;;;;;;5.66;91.40;99986.27;100597;1296;98724;-58
2022/11/16 01:00:12;;;;;;;23.90;14.10;;;;;;;5.64;91.43;99985.73;100606;1293;94677;-59
2022/11/16 01:02:45;;;;;;;25.70;14.20;;;;;;;5.68;91.40;99980.87;100636;1296;82426;-59
2022/11/16 01:05:16;;;;;;;22.40;13.20;;;;;;;5.71;91.38;99971.01;100703;1296;89242;-59
2022/11/16 01:07:49;;;;;;;22.50;14.10;;;;;;;5.75;91.27;99969.34;100626;1294;81644;-59
2022/11/16 01:10:25;;;;;;;23.30;13.60;;;;;;;5.77;91.20;99967.70;100619;1294;98667;-61
2022/11/16 01:13:00;;;;;;;21.90;14.00;;;;;;;5.75;91.19;99963.95;100597;1296;94971;-60
2022/11/16 01:15:31;;;;;;;23.10;12.80;;;;;;;5.73;90.96;99960.83;100571;1296;81919;-58
2022/11/16 01:18:07;;;;;;;20.60;12.10;;;;;;;5.67;91.20;99961.80;100565;1294;87289;-58
2022/11/16 01:20:44;;;;;;;23.00;13.60;;;;;;;5.61;91.24;99956.23;100558;1294;82644;-60
2022/11/16 01:23:16;;;;;;;24.50;13.80;;;;;;;5.63;91.20;99954.08;100564;1295;98504;-58
2022/11/16 01:25:56;;;;;;;21.70;12.70;;;;;;;5.68;91.14;99948.02;100569;1296;95576;-58
2022/11/16 01:28:32;;;;;;;23.10;13.80;;;;;;;5.66;91.17;99946.87;100607;1296;82981;-62
2022/11/16 01:31:02;;;;;;;22.50;13.30;;;;;;;5.69;91.10;99948.98;100602;1294;88231;-61
2022/11/16 01:33:34;;;;;;;22.30;13.40;;;;;;;5.72;91.06;99950.32;100620;1296;79675;-57
2022/11/16 01:36:13;;;;;;;22.40;13.60;;;;;;;5.65;91.10;99948.48;100586;1285;97411;-57
2022/11/16 01:38:46;;;;;;;21.40;13.50;;;;;;;5.65;91.12;99948.33;100617;1288;95532;-57
2022/11/16 01:41:19;;;;;;;22.20;13.00;;;;;;;5.69;91.05;99946.02;100616;1295;83301;-57
2022/11/16 01:44:04;;;;;;;20.80;13.00;;;;;;;5.64;91.09;99943.10;100626;1292;89213;-58
2022/11/16 01:46:37;;;;;;;23.30;12.70;;;;;;;5.59;91.09;99942.70;100621;1291;82239;-57
2022/11/16 01:49:13;;;;;;;23.40;13.20;;;;;;;5.59;91.22;99945.20;100631;1296;97647;-58
2022/11/16 01:51:54;;;;;;;20.20;12.90;;;;;;;5.64;91.17;99937.49;100589;1296;95752;-57
2022/11/16 01:54:29;;;;;;;20.60;13.00;;;;;;;5.63;91.27;99935.86;100622;1296;83056;-60
2022/11/16 01:57:09;;;;;;;19.20;12.00;;;;;;;5.59;91.14;99931.60;100621;1296;87927;-61
2022/11/16 01:59:42;;;;;;;23.10;13.80;;;;;;;5.61;91.03;99925.70;100587;1296;80946;-59
2022/11/16 02:02:14;;;;;;;20.40;12.50;;;;;;;5.59;91.13;99922.73;100556;1296;98552;-59
2022/11/16 02:04:50;;;;;;;21.00;12.10;;;;;;;5.57;91.08;99924.52;100574;1296;94342;-56
2022/11/16 02:09:52;;;;;;;19.80;12.60;;;;;;;5.57;91.12;99927.27;100568;1295;83680;-57
2022/11/16 02:10:38;;;;;;;19.30;12.00;;;;;;;5.64;90.93;99933.38;100561;1292;89498;-61
2022/11/16 02:13:32;;;;;;;20.10;12.40;;;;;;;5.68;90.94;99930.70;100537;1294;82068;-59
2022/11/16 02:16:17;;;;;;;20.90;11.80;;;;;;;5.70;90.89;99923.81;100581;1295;98713;-60
2022/11/16 02:19:00;;;;;;;19.60;11.40;;;;;;;5.69;90.87;99926.54;100585;1296;94924;-58
2022/11/16 02:21:41;;;;;;;18.40;11.20;;;;;;;5.70;90.84;99923.95;100592;1296;82042;-57
2022/11/16 02:24:40;;;;;;;20.20;13.00;;;;;;;5.71;90.88;99918.09;100636;1289;87799;-57
2022/11/16 02:27:37;;;;;;;22.30;13.20;;;;;;;5.72;90.87;99914.68;100572;1296;82233;-57
2022/11/16 02:30:13;;;;;;;22.30;12.50;;;;;;;5.69;90.89;99918.36;100598;1295;98201;-60
2022/11/16 02:32:50;;;;;;;19.10;11.60;;;;;;;5.70;90.93;99907.35;100571;1295;94247;-59
2022/11/16 02:35:29;;;;;;;21.30;13.20;;;;;;;5.70;90.95;99903.42;100612;1296;81773;-59
2022/11/16 02:38:07;;;;;;;19.70;12.50;;;;;;;5.76;90.73;99904.31;100606;1293;88342;-60
2022/11/16 02:40:40;;;;;;;23.10;13.80;;;;;;;5.74;90.72;99902.78;100612;1296;82158;-60
2022/11/16 02:43:16;;;;;;;21.10;12.50;;;;;;;5.77;90.71;99908.47;100618;1285;98150;-59
2022/11/16 02:45:55;;;;;;;20.60;11.90;;;;;;;5.78;90.70;99906.63;100542;1285;94262;-60
2022/11/16 02:48:34;;;;;;;21.80;13.20;;;;;;;5.78;90.67;99900.16;100589;1296;83461;-58
2022/11/16 02:51:11;;;;;;;20.80;13.70;;;;;;;5.82;90.74;99900.48;100562;1296;89047;-58
2022/11/16 02:54:04;;;;;;;22.60;12.60;;;;;;;5.85;90.70;99903.67;100601;1295;83034;-61
2022/11/16 02:56:48;;;;;;;20.30;12.40;;;;;;;5.83;90.76;99900.90;100589;1296;99110;-60
2022/11/16 02:59:21;;;;;;;24.50;13.80;;;;;;;5.82;90.69;99891.73;100559;1296;93136;-58
2022/11/16 03:01:59;;;;;;;21.60;14.00;;;;;;;5.79;90.67;99883.95;100581;1295;83799;-58
2022/11/16 03:04:41;;;;;;;20.50;13.50;;;;;;;5.77;90.54;99882.03;100586;1294;88653;-60
2022/11/16 03:07:17;;;;;;;20.70;13.30;;;;;;;5.75;90.63;99879.09;100589;1295;81533;-60
2022/11/16 03:09:48;;;;;;;19.50;12.00;;;;;;;5.70;90.67;99878.77;100638;1290;98898;-57
2022/11/16 03:12:25;;;;;;;24.60;13.50;;;;;;;5.76;90.60;99881.66;100618;1296;95679;-57
2022/11/16 03:14:59;;;;;;;24.80;14.20;;;;;;;5.73;90.59;99880.00;100608;1296;81905;-61
2022/11/16 03:17:34;;;;;;;22.50;14.30;;;;;;;5.74;90.60;99881.14;100606;1288;88853;-61
2022/11/16 03:20:17;;;;;;;22.60;13.60;;;;;;;5.72;90.71;99877.42;100558;1296;80878;-58
2022/11/16 03:22:55;;;;;;;20.60;12.80;;;;;;;5.74;90.63;99877.13;100575;1296;98652;-59
2022/11/16 03:25:31;;;;;;;23.60;14.50;;;;;;;5.76;90.70;99875.45;100582;1296;94621;-58
2022/11/16 03:28:13;;;;;;;24.10;13.60;;;;;;;5.78;90.55;99870.95;100584;1293;82317;-57
2022/11/16 03:30:55;;;;;;;23.60;13.50;;;;;;;5.71;90.69;99872.57;100548;1296;86980;-57
2022/11/16 03:33:32;;;;;;;21.30;13.40;;;;;;;5.62;90.78;99871.15;100601;1294;80836;-60
2022/11/16 03:36:10;;;;;;;23.50;13.40;;;;;;;5.60;90.82;99868.72;100559;1285;95778;-60
2022/11/16 03:38:45;;;;;;;24.80;14.20;;;;;;;5.59;90.72;99864.46;100568;1288;94920;-58
2022/11/16 03:41:15;;;;;;;23.90;13.50;;;;;;;5.62;90.65;99861.08;100543;1296;82032;-57
2022/11/16 03:43:47;;;;;;;24.40;12.80;;;;;;;5.64;90.59;99856.77;100559;1295;89770;-60
2022/11/16 03:46:17;;;;;;;24.40;13.60;;;;;;;5.68;90.66;99857.35;100552;1294;82686;-59
2022/11/16 03:48:55;;;;;;;25.20;14.30;;;;;;;5.72;90.68;99861.77;100616;1294;97420;-57
2022/11/16 03:51:28;;;;;;;23.20;13.50;;;;;;;5.74;90.64;99860.44;100576;1295;95365;-57
2022/11/16 03:53:58;;;;;;;25.70;14.80;;;;;;;5.71;90.63;99857.67;100577;1296;83464;-58
2022/11/16 03:56:33;;;;;;;22.40;14.20;;;;;;;5.75;90.52;99856.75;100583;1280;89682;-57
2022/11/16 03:59:07;;;;;;;28.10;16.00;;;;;;;5.79;90.51;99853.33;100601;1294;79945;-60
2022/11/16 04:01:37;;;;;;;25.60;14.60;;;;;;;5.79;90.54;99852.15;100567;1288;98564;-60
2022/11/16 04:24:10;;;;;;;23.20;13.70;;;;;;;5.82;90.59;99851.13;100650;1296;95387;-58
2022/11/16 04:24:19;;;;;;;47.80;17.30;;;;;;;5.92;90.48;99849.29;100582;1296;88281;-55
2022/11/16 04:29:48;;;;;;;39.20;15.90;;;;;;;5.87;90.54;99840.55;100581;1295;98203;-58
2022/11/16 04:38:13;;;;;;;44.90;18.10;;;;;;;5.88;90.51;99840.33;100573;1295;89431;-58
2022/11/16 04:40:46;;;;;;;42.50;17.10;;;;;;;5.91;90.50;99841.58;100647;1296;80646;-61
2022/11/16 04:43:18;;;;;;;41.30;18.20;;;;;;;5.91;90.46;99838.05;100618;1293;96839;-58
2022/11/16 04:48:42;;;;;;;52.00;18.30;;;;;;;5.86;90.50;99836.61;100600;1289;80892;-61
2022/11/16 04:51:12;;;;;;;60.50;18.90;;;;;;;5.87;90.68;99834.86;100575;1288;88629;-61
2022/11/16 04:53:46;;;;;;;34.70;15.60;;;;;;;5.93;90.69;99835.75;100555;1293;80850;-58
2022/11/16 04:56:17;;;;;;;28.70;17.00;;;;;;;5.91;90.63;99840.08;100534;1294;99073;-60
2022/11/16 04:58:50;;;;;;;28.30;16.90;;;;;;;5.90;90.79;99843.07;100608;1294;94992;-59
2022/11/16 05:02:06;;;;;;;30.50;16.50;;;;;;;5.93;90.75;99843.33;100567;1296;80223;-60
2022/11/16 05:04:16;;;;;;;28.20;15.50;;;;;;;5.92;90.69;99842.89;100580;1296;88465;-60
2022/11/16 05:06:46;;;;;;;30.20;16.20;;;;;;;5.93;90.72;99841.11;100586;1296;81779;-60
2022/11/16 05:09:18;;;;;;;27.90;16.20;;;;;;;5.94;90.68;99838.56;100547;1296;99934;-57
2022/11/16 05:11:47;;;;;;;39.10;17.50;;;;;;;5.94;90.68;99831.72;100542;1285;94572;-59
2022/11/16 05:14:18;;;;;;;33.00;17.50;;;;;;;5.95;90.65;99830.04;100627;1288;83209;-58
2022/11/16 05:16:51;;;;;;;48.20;18.30;;;;;;;5.95;90.70;99832.70;100577;1296;88801;-58
2022/11/16 05:22:14;;;;;;;41.90;18.60;;;;;;;5.96;90.65;99826.15;100644;1296;97692;-60
2022/11/16 05:24:52;;;;;;;36.70;17.60;;;;;;;5.97;90.72;99829.07;100675;1295;94045;-58
2022/11/16 05:27:30;;;;;;;39.80;17.60;;;;;;;5.92;90.85;99828.38;100674;1296;81010;-58
2022/11/16 05:30:01;;;;;;;35.70;17.30;;;;;;;5.91;90.86;99824.60;100681;1280;88444;-59
2022/11/16 05:32:38;;;;;;;35.30;18.00;;;;;;;5.88;90.83;99825.48;100584;1296;81597;-58
2022/11/16 05:35:16;;;;;;;58.90;19.80;;;;;;;5.80;90.96;99830.34;100623;1294;97733;-56
2022/11/16 05:37:47;;;;;;;57.30;21.30;;;;;;;5.88;90.96;99829.17;100575;1296;95133;-56
2022/11/16 05:40:20;;;;;;;48.10;17.60;;;;;;;5.88;90.89;99828.33;100591;1294;83504;-60
2022/11/16 05:42:53;;;;;;;48.10;17.50;;;;;;;5.86;91.07;99825.52;100581;1296;87982;-61
2022/11/16 05:45:24;;;;;;;41.60;18.70;;;;;;;5.84;91.11;99830.04;100581;1295;81006;-59
2022/11/16 05:47:53;;;;;;;52.80;19.60;;;;;;;5.82;91.18;99823.13;100580;1288;97802;-60
2022/11/16 05:50:29;;;;;;;57.70;19.40;;;;;;;5.84;91.14;99820.15;100592;1294;93346;-59
2022/11/16 05:52:58;;;;;;;43.60;18.50;;;;;;;5.84;91.26;99823.05;100580;1296;82361;-61
2022/11/16 05:55:29;;;;;;;35.10;18.70;;;;;;;5.83;91.14;99826.58;100558;1288;86892;-58
2022/11/16 05:58:02;;;;;;;34.10;19.70;;;;;;;5.85;91.13;99832.55;100521;1288;81398;-59
2022/11/16 06:08:27;;;;;;;28.20;17.00;;;;;;;5.86;91.32;99832.14;100394;1277;80409;-58
2022/11/16 06:11:03;;;;;;;31.00;17.40;;;;;;;5.86;91.39;99839.30;100508;1297;88782;-57
2022/11/16 06:13:35;;;;;;;30.50;16.20;;;;;;;5.85;91.47;99839.80;100458;1299;80393;-55
2022/11/16 06:20:07;;;;;;;28.60;17.10;;;;;;;5.80;91.41;99843.10;100088;1299;95223;-56
2022/11/16 06:22:38;;;;;;;30.60;17.00;;;;;;;5.80;91.30;99848.13;100147;1295;82123;-59
2022/11/16 06:25:10;;;;;;;29.10;17.80;;;;;;;5.81;91.37;99849.63;100315;1291;88838;-59
2022/11/16 06:27:40;;;;;;;29.80;19.00;;;;;;;5.81;91.48;99845.17;100376;1297;79847;-55
2022/11/16 06:30:12;;;;;;;28.20;17.00;;;;;;;5.82;91.56;99841.02;99979;1292;505873;-58
2022/11/16 06:32:43;;;;;;;26.20;16.20;;;;;;;5.78;91.46;99835.46;100365;1297;94649;-49
2022/11/16 06:39:59;;;;;;;26.80;15.00;;;;;;;5.76;91.57;99833.40;100564;1286;88832;-59
2022/11/16 06:43:09;;;;;;;26.20;15.40;;;;;;;5.73;91.80;99834.45;100500;1295;81998;-58
2022/11/16 06:50:26;;;;;;;27.20;15.50;;;;;;;5.74;91.83;99829.48;100643;1279;93267;-61
2022/11/16 06:52:59;;;;;;;23.90;14.10;;;;;;;5.73;91.93;99829.09;100444;1275;82143;-60
2022/11/16 06:55:32;;;;;;;28.10;16.70;;;;;;;5.77;91.89;99835.11;100469;1291;88866;-58
2022/11/16 06:58:24;;;;;;;27.20;15.90;;;;;;;5.75;92.01;99832.30;100472;1291;80401;-57
2022/11/16 07:01:05;;;;;;;25.30;15.50;;;;;;;5.77;92.06;99835.30;100104;1297;97701;-58
2022/11/16 07:03:37;;;;;;;29.70;17.20;;;;;;;5.77;92.17;99837.11;100103;1300;94173;-57
2022/11/16 07:06:17;;;;;;;31.70;17.40;;;;;;;5.81;92.06;99840.38;100138;1296;83374;-57
2022/11/16 07:08:52;;;;;;;27.20;15.50;;;;;;;5.81;92.12;99832.27;100109;1303;88125;-58
2022/11/16 07:11:21;;;;;;;30.70;18.20;;;;;;;5.83;92.20;99825.60;100086;1304;81705;-59
2022/11/16 07:13:52;;;;;;;26.00;15.90;;;;;;;5.88;92.07;99818.70;100226;1268;96754;-60
2022/11/16 07:25:46;;;;;;;27.90;15.80;;;;;;;5.87;92.18;99815.54;100519;1278;89150;-59
2022/11/16 07:28:25;;;;;;;28.40;17.60;;;;;;;5.90;92.19;99814.86;100376;1297;82421;-59
2022/11/16 07:30:55;;;;;;;32.70;17.40;;;;;;;5.84;92.41;99815.70;100406;1297;96946;-58
2022/11/16 07:33:27;;;;;;;42.10;17.40;;;;;;;5.86;92.30;99815.91;100378;1291;95790;-57
2022/11/16 07:36:05;;;;;;;30.50;17.10;;;;;;;5.82;92.40;99813.77;100410;1297;81853;-61
2022/11/16 07:38:41;;;;;;;34.00;17.00;;;;;;;5.83;92.47;99811.54;100369;1290;87094;-58
2022/11/16 07:41:16;;;;;;;30.20;17.90;;;;;;;5.90;92.50;99810.60;100404;1297;80937;-55
2022/11/16 07:43:50;;;;;;;34.90;17.60;;;;;;;5.92;92.39;99808.41;100383;1298;97755;-56
2022/11/16 07:46:23;;;;;;;34.60;17.00;;;;;;;5.95;92.47;99806.95;100425;1292;94967;-59
2022/11/16 07:48:52;;;;;;;29.20;15.10;;;;;;;6.01;92.51;99807.06;100447;1295;80928;-52
2022/11/16 07:51:24;;;;;;;41.80;17.40;;;;;;;5.98;92.58;99808.96;100434;1297;88654;-58
2022/11/16 07:53:57;;;;;;;36.00;16.90;;;;;;;5.99;92.45;99812.23;100435;1297;82442;-58
2022/11/16 07:56:29;;;;;;;34.50;15.70;;;;;;;6.03;92.42;99808.98;100440;1297;99085;-59
2022/11/16 07:59:08;;;;;;;28.50;15.80;;;;;;;6.07;92.35;99809.42;100424;1294;93349;-56
2022/11/16 08:01:39;;;;;;;35.50;16.30;;;;;;;6.09;92.31;99801.10;100406;1295;82533;-61
2022/11/16 08:04:14;;;;;;;27.60;15.80;;;;;;;6.08;92.14;99794.02;100374;1292;88133;-60
2022/11/16 08:06:45;;;;;;;27.60;14.70;;;;;;;6.06;92.23;99796.38;100419;1291;81166;-61
2022/11/16 08:09:18;;;;;;;26.80;14.70;;;;;;;6.06;92.25;99794.14;100389;1297;98988;-61
2022/11/16 08:11:51;;;;;;;29.00;14.70;;;;;;;6.12;92.37;99793.54;100343;1294;95723;-61
2022/11/16 08:14:22;;;;;;;26.80;13.90;;;;;;;6.17;92.18;99792.30;100385;1299;80935;-61
2022/11/16 08:16:54;;;;;;;24.80;13.30;;;;;;;6.18;91.91;99793.64;100386;1298;88879;-62
2022/11/16 08:19:26;;;;;;;30.00;13.50;;;;;;;6.15;92.07;99796.04;100398;1294;82484;-61
2022/11/16 08:21:57;;;;;;;34.50;13.30;;;;;;;6.16;91.95;99801.16;100419;1297;98966;-62
2022/11/16 08:24:28;;;;;;;39.10;15.60;;;;;;;6.15;91.96;99803.20;100309;1294;93335;-60
2022/11/16 08:27:02;;;;;;;30.20;12.40;;;;;;;6.16;91.88;99800.08;100375;1297;81343;-57
2022/11/16 08:29:34;;;;;;;38.40;12.80;;;;;;;6.17;91.81;99800.27;100409;1297;88342;-56
2022/11/16 08:32:08;;;;;;;28.60;10.20;;;;;;;6.16;91.69;99799.19;100483;1299;81983;-60
2022/11/16 08:34:43;;;;;;;37.70;11.30;;;;;;;6.15;91.79;99794.00;100451;1292;98156;-58
2022/11/16 08:37:12;;;;;;;16.70;9.20;;;;;;;6.19;91.53;99794.02;100413;1297;94057;-61
2022/11/16 08:39:44;;;;;;;27.60;11.00;;;;;;;6.16;91.63;99792.24;100441;1297;82677;-61
2022/11/16 08:42:18;;;;;;;21.80;10.00;;;;;;;6.19;91.53;99795.14;100362;1294;89332;-58
2022/11/16 08:44:49;;;;;;;14.80;9.30;;;;;;;6.16;91.50;99795.83;100384;1297;79623;-60
2022/11/16 08:47:23;;;;;;;14.30;8.60;;;;;;;6.13;91.49;99796.71;100382;1297;98517;-59
2022/11/16 08:49:55;;;;;;;16.30;7.80;;;;;;;6.15;91.45;99801.14;100339;1298;94808;-61
2022/11/16 08:52:29;;;;;;;26.10;10.00;;;;;;;6.14;91.29;99801.87;100363;1299;83579;-61
2022/11/16 08:54:58;;;;;;;22.90;9.20;;;;;;;6.10;91.40;99802.90;100371;1298;88100;-62
2022/11/16 08:57:28;;;;;;;20.90;8.60;;;;;;;6.13;91.38;99805.30;100363;1298;82165;-54
2022/11/16 08:59:57;;;;;;;19.30;9.50;;;;;;;6.12;91.47;99804.86;100428;1292;98923;-61
2022/11/16 09:02:32;;;;;;;18.10;8.60;;;;;;;6.15;91.53;99806.23;100399;1297;95402;-61
2022/11/16 09:05:10;;;;;;;19.70;8.50;;;;;;;6.14;91.43;99807.48;100402;1291;82122;-63
2022/11/16 09:07:44;;;;;;;11.10;7.30;;;;;;;6.14;91.39;99808.32;100398;1299;88340;-64
2022/11/16 09:10:14;;;;;;;15.90;7.60;;;;;;;6.15;91.27;99806.96;100458;1291;82244;-63
2022/11/16 09:12:46;;;;;;;13.30;7.30;;;;;;;6.16;91.28;99805.64;100401;1294;97349;-61
2022/11/16 09:15:15;;;;;;;13.30;7.40;;;;;;;6.17;91.24;99806.26;100374;1291;93889;-59
2022/11/16 09:17:53;;;;;;;10.40;6.40;;;;;;;6.11;91.32;99800.31;100396;1297;83095;-58
2022/11/16 09:20:26;;;;;;;15.70;7.20;;;;;;;6.08;91.21;99797.84;100393;1297;89012;-62
2022/11/16 09:22:58;;;;;;;19.30;8.10;;;;;;;6.05;91.42;99803.54;100386;1294;81107;-62
2022/11/16 09:25:27;;;;;;;13.40;7.10;;;;;;;6.06;91.25;99799.70;100421;1294;98175;-62
2022/11/16 09:28:02;;;;;;;11.40;6.30;;;;;;;6.00;91.30;99799.13;100375;1297;95390;-63
2022/11/16 09:30:33;;;;;;;8.20;5.60;;;;;;;5.95;91.37;99803.11;100477;1291;82763;-59
2022/11/16 09:33:05;;;;;;;7.90;5.70;;;;;;;5.95;91.42;99800.16;100446;1298;89014;-53
2022/11/16 09:35:35;;;;;;;10.50;6.50;;;;;;;6.02;91.34;99795.59;100484;1291;81999;-61
2022/11/16 09:38:05;;;;;;;15.70;7.60;;;;;;;6.10;91.28;99791.70;100474;1291;98849;-61
2022/11/16 09:40:41;;;;;;;15.80;7.10;;;;;;;6.14;91.29;99786.92;100473;1297;94749;-59
2022/11/16 09:43:33;;;;;;;9.10;5.70;;;;;;;6.06;91.24;99785.30;100425;1291;80980;-58
2022/11/16 09:46:20;;;;;;;13.40;6.80;;;;;;;6.05;91.11;99785.50;100347;1287;88005;-62
2022/11/16 09:49:00;;;;;;;9.60;5.90;;;;;;;6.03;91.16;99785.74;100448;1291;80080;-61
2022/11/16 09:51:37;;;;;;;7.40;5.20;;;;;;;6.02;91.31;99780.04;100474;1292;97764;-59
2022/11/16 09:54:14;;;;;;;8.10;4.90;;;;;;;6.06;91.22;99780.66;100423;1299;95017;-59
2022/11/16 09:56:45;;;;;;;8.30;5.20;;;;;;;6.04;91.36;99781.14;100440;1291;82975;-61
2022/11/16 09:59:26;;;;;;;7.50;5.70;;;;;;;6.06;91.15;99780.52;100419;1291;89171;-60
2022/11/16 10:01:58;;;;;;;7.40;5.80;;;;;;;6.11;91.11;99779.06;100459;1291;82053;-58
2022/11/16 10:04:47;;;;;;;6.30;4.90;;;;;;;6.13;90.84;99781.30;100469;1285;98209;-59
2022/11/16 10:07:24;;;;;;;7.50;5.40;;;;;;;6.14;90.74;99771.51;100482;1293;95618;-59
2022/11/16 10:10:00;;;;;;;10.70;6.50;;;;;;;6.19;90.97;99767.33;100466;1291;83003;-59
2022/11/16 10:12:42;;;;;;;11.30;7.60;;;;;;;6.20;90.89;99767.04;100451;1299;89164;-57
2022/11/16 10:15:44;;;;;;;11.20;6.90;;;;;;;6.14;90.74;99770.10;100453;1298;82030;-60
2022/11/16 10:18:34;;;;;;;10.30;6.20;;;;;;;6.15;90.68;99764.42;100422;1288;98529;-59
2022/11/16 10:21:27;;;;;;;13.70;5.70;;;;;;;6.23;90.51;99756.38;100431;1292;93987;-60
2022/11/16 10:24:21;;;;;;;12.20;5.90;;;;;;;6.27;90.70;99754.96;100411;1291;80683;-59
2022/11/16 10:27:07;;;;;;;11.80;6.00;;;;;;;6.33;90.60;99751.41;100423;1291;87969;-60
2022/11/16 10:29:50;;;;;;;10.60;6.30;;;;;;;6.36;90.71;99742.30;100401;1298;80625;-62
2022/11/16 10:32:29;;;;;;;7.70;5.20;;;;;;;6.46;90.33;99741.52;100421;1291;96247;-60
2022/11/16 10:35:05;;;;;;;7.60;5.00;;;;;;;6.55;90.18;99740.41;100454;1295;92664;-59
2022/11/16 10:37:41;;;;;;;7.30;4.70;;;;;;;6.57;89.48;99742.59;100454;1292;83071;-52
2022/11/16 10:40:29;;;;;;;7.60;4.70;;;;;;;6.44;89.35;99744.90;100423;1299;88603;-63
2022/11/16 10:43:14;;;;;;;7.90;4.90;;;;;;;6.38;89.17;99742.79;100441;1291;81476;-63
2022/11/16 10:45:52;;;;;;;6.20;4.20;;;;;;;6.47;89.13;99740.04;100429;1291;98879;-60
2022/11/16 10:48:36;;;;;;;7.50;3.90;;;;;;;6.58;89.16;99741.56;100441;1298;95627;-60
2022/11/16 10:51:11;;;;;;;13.50;6.20;;;;;;;6.57;89.17;99740.36;100440;1295;80324;-62
2022/11/16 10:53:44;;;;;;;11.70;4.90;;;;;;;6.56;89.10;99739.06;100396;1291;88737;-63
2022/11/16 10:56:36;;;;;;;7.20;4.90;;;;;;;6.57;88.80;99739.52;100403;1291;78638;-61
2022/11/16 10:59:07;;;;;;;7.30;4.70;;;;;;;6.54;88.57;99737.67;100416;1291;99501;-61
2022/11/16 11:01:43;;;;;;;13.60;5.60;;;;;;;6.59;88.76;99740.86;100406;1291;93414;-60
2022/11/16 11:04:27;;;;;;;39.70;9.70;;;;;;;6.58;88.73;99738.32;100414;1291;81353;-60
2022/11/16 11:06:58;;;;;;;15.90;6.10;;;;;;;6.59;88.33;99736.38;100463;1291;89616;-60
2022/11/16 11:09:35;;;;;;;49.90;8.90;;;;;;;6.59;88.35;99730.85;100452;1291;81209;-60
2022/11/16 11:15:20;;;;;;;6.20;3.90;;;;;;;6.49;88.08;99728.38;100418;1291;92761;-60
2022/11/16 11:17:53;;;;;;;4.80;3.80;;;;;;;6.46;87.99;99731.33;100402;1291;81997;-60
2022/11/16 11:20:26;;;;;;;9.50;4.00;;;;;;;6.41;87.76;99728.15;100411;1291;88707;-62
2022/11/16 11:23:02;;;;;;;6.70;3.60;;;;;;;6.33;87.80;99731.92;100427;1297;81732;-60
2022/11/16 11:25:36;;;;;;;6.60;3.50;;;;;;;6.32;87.65;99738.64;100414;1291;97936;-59
2022/11/16 11:28:20;;;;;;;8.90;3.50;;;;;;;6.29;87.59;99743.15;100381;1292;95103;-58
2022/11/16 11:31:04;;;;;;;6.50;3.50;;;;;;;6.27;87.44;99740.81;100409;1291;82846;-45
2022/11/16 11:33:37;;;;;;;4.20;3.00;;;;;;;6.23;87.26;99741.98;100476;1298;89003;-58
2022/11/16 11:36:17;;;;;;;4.00;3.60;;;;;;;6.20;87.55;99742.41;100473;1291;81512;-59
2022/11/16 11:39:05;;;;;;;4.90;2.80;;;;;;;6.25;87.56;99738.02;100447;1297;99192;-61
2022/11/16 11:41:40;;;;;;;4.20;3.00;;;;;;;6.27;87.51;99735.48;100428;1291;94786;-61
2022/11/16 11:44:20;;;;;;;8.50;3.20;;;;;;;6.31;87.51;99735.77;100440;1291;83103;-60
2022/11/16 11:46:55;;;;;;;4.20;2.70;;;;;;;6.33;87.39;99735.14;100443;1291;86938;-55
2022/11/16 11:49:32;;;;;;;5.80;3.00;;;;;;;6.37;87.22;99731.80;100418;1290;81792;-54
2022/11/16 11:52:09;;;;;;;10.90;3.90;;;;;;;6.41;87.28;99731.13;100423;1291;98362;-60
2022/11/16 11:54:45;;;;;;;29.10;5.40;;;;;;;6.46;87.31;99735.42;100403;1291;95752;-61
2022/11/16 11:57:20;;;;;;;28.80;6.30;;;;;;;6.52;87.35;99734.09;100403;1291;80919;-60
2022/11/16 11:59:56;;;;;;;34.40;6.20;;;;;;;6.54;87.17;99737.33;100396;1292;85649;-61
2022/11/16 12:02:50;;;;;;;11.70;3.60;;;;;;;6.45;86.81;99727.97;100456;1291;80580;-59
2022/11/16 12:05:52;;;;;;;9.80;2.70;;;;;;;6.35;86.56;99730.81;100465;1298;99304;-63
2022/11/16 12:08:41;;;;;;;27.40;5.20;;;;;;;6.29;86.42;99727.77;100424;1298;94457;-62
2022/11/16 12:11:24;;;;;;;19.60;4.40;;;;;;;6.23;86.51;99726.54;100471;1291;83566;-61
2022/11/16 12:14:27;;;;;;;36.20;5.50;;;;;;;6.20;86.55;99732.35;100416;1298;86920;-63
2022/11/16 12:17:06;;;;;;;3.00;2.10;;;;;;;6.10;86.90;99736.84;100400;1297;81804;-59
2022/11/16 12:20:12;;;;;;;8.90;2.40;;;;;;;5.96;86.90;99741.98;100413;1291;98918;-59
2022/11/16 12:23:21;;;;;;;3.10;1.60;;;;;;;5.67;86.41;99750.34;100296;1291;95353;-57
2022/11/16 12:26:11;;;;;;;19.00;3.10;;;;;;;5.54;86.87;99751.29;100420;1291;82572;-59
2022/11/16 12:28:58;;;;;;;7.10;1.30;;;;;;;5.42;87.05;99765.72;100417;1298;88606;-59
2022/11/16 12:31:53;;;;;;;4.90;1.60;;;;;;;5.35;87.07;99765.93;100390;1291;81803;-57
2022/11/16 12:34:38;;;;;;;23.50;4.70;;;;;;;5.24;87.08;99768.23;100449;1298;99349;-62
2022/11/16 12:37:18;;;;;;;3.60;1.40;;;;;;;5.20;87.30;99770.08;100422;1291;95101;-64
2022/11/16 12:40:12;;;;;;;1.80;1.30;;;;;;;5.13;87.42;99771.38;100443;1290;81678;-56
2022/11/16 12:42:59;;;;;;;5.60;1.70;;;;;;;5.10;87.48;99770.20;100438;1291;89056;-62
2022/11/16 12:46:01;;;;;;;3.30;1.30;;;;;;;4.98;87.52;99768.12;100437;1291;82326;-61
2022/11/16 12:49:02;;;;;;;24.10;4.00;;;;;;;4.87;87.77;99765.74;100431;1291;98913;-59
2022/11/16 12:51:53;;;;;;;19.10;3.30;;;;;;;4.79;87.95;99764.75;100456;1297;92034;-58
2022/11/16 12:54:52;;;;;;;4.10;1.60;;;;;;;4.77;88.02;99763.81;100431;1298;80973;-59
2022/11/16 12:57:30;;;;;;;19.60;3.60;;;;;;;4.81;88.00;99766.52;100379;1291;88936;-57
2022/11/16 13:00:15;;;;;;;18.10;3.30;;;;;;;4.82;87.87;99770.11;100437;1291;79650;-60
2022/11/16 13:03:14;;;;;;;4.30;1.80;;;;;;;4.70;88.12;99774.28;100466;1291;97355;-60
2022/11/16 13:06:00;;;;;;;18.00;3.10;;;;;;;4.50;88.43;99770.99;100387;1291;94667;-59
2022/11/16 13:08:50;;;;;;;16.30;3.10;;;;;;;4.46;88.16;99770.86;100464;1298;82368;-59
2022/11/16 13:11:27;;;;;;;6.40;1.80;;;;;;;4.46;88.37;99776.58;100495;1292;88575;-60
2022/11/16 13:14:05;;;;;;;20.40;4.30;;;;;;;4.38;88.21;99778.73;100492;1291;79810;-61
2022/11/16 13:16:40;;;;;;;12.00;3.10;;;;;;;4.26;88.66;99785.39;100424;1295;99345;-60